Time;durP1;ratioP1;P1;durP2;ratioP2;P2;SDS_P1;SDS_P2;PMS_P1;PMS_P2;Temp;Humidity;BMP_temperature;BMP_pressure;BME280_temperature;BME280_humidity;BME280_pressure;Samples;Min_cycle;Max_cycle;Signal;HPM_P1;HPM_P2
2022/11/25 00:01:31;;;;;;;10.30;5.25;;;;;;;4.57;95.69;98832.72;1659347;85;21015;-78
2022/11/25 00:04:00;;;;;;;10.60;5.53;;;;;;;4.55;95.78;98834.01;1654931;85;21531;-77
2022/11/25 00:06:32;;;;;;;9.95;5.00;;;;;;;4.43;96.12;98830.21;1632902;86;20984;-78
2022/11/25 00:09:06;;;;;;;11.78;5.45;;;;;;;4.52;96.11;98846.06;1633266;86;21123;-78
2022/11/25 00:11:36;;;;;;;12.88;5.35;;;;;;;4.47;96.12;98847.35;1660145;85;21023;-77
2022/11/25 00:14:05;;;;;;;12.23;5.67;;;;;;;4.50;96.02;98846.06;1663288;85;21511;-77
2022/11/25 00:16:33;;;;;;;7.85;4.33;;;;;;;4.49;95.83;98838.34;1665289;84;21016;-78
2022/11/25 00:19:00;;;;;;;9.78;4.40;;;;;;;4.51;95.80;98841.33;1657741;85;21480;-78
2022/11/25 00:21:32;;;;;;;14.50;5.10;;;;;;;4.54;95.17;98842.61;1637015;86;21529;-77
2022/11/25 00:24:02;;;;;;;9.93;4.87;;;;;;;4.49;95.10;98843.05;1634963;86;20992;-78
2022/11/25 00:26:32;;;;;;;10.98;4.50;;;;;;;4.43;95.44;98843.08;1658164;85;21003;-78
2022/11/25 00:29:03;;;;;;;10.93;4.67;;;;;;;4.46;95.67;98844.38;1657156;85;21536;-78
2022/11/25 00:31:34;;;;;;;9.63;4.80;;;;;;;4.43;95.52;98840.51;1635099;86;20974;-77
2022/11/25 00:34:02;;;;;;;11.28;4.83;;;;;;;4.45;95.27;98839.22;1656422;85;21015;-78
2022/11/25 00:36:33;;;;;;;9.05;4.08;;;;;;;4.41;95.25;98847.38;1658763;85;21010;-77
2022/11/25 00:39:09;;;;;;;11.45;4.17;;;;;;;4.43;95.22;98848.23;1660364;85;21051;-78
2022/11/25 00:44:34;;;;;;;9.48;4.20;;;;;;;4.35;96.00;98846.12;1621019;86;21068;-78
2022/11/25 00:47:09;;;;;;;10.53;4.42;;;;;;;4.39;95.81;98849.95;1656112;85;21022;-78
2022/11/25 00:49:39;;;;;;;11.88;4.75;;;;;;;4.41;95.40;98851.24;1657625;85;21000;-78
2022/11/25 00:52:08;;;;;;;7.75;4.20;;;;;;;4.37;95.89;98852.97;1656739;85;21071;-79
2022/11/25 00:54:35;;;;;;;10.00;4.10;;;;;;;4.39;95.65;98846.53;1642622;86;20999;-77
2022/11/25 00:57:03;;;;;;;10.30;4.28;;;;;;;4.36;95.71;98851.27;1657191;85;21063;-77
2022/11/25 00:59:31;;;;;;;10.10;4.70;;;;;;;4.38;95.74;98855.13;1654497;85;20992;-78
2022/11/25 01:01:59;;;;;;;11.25;5.08;;;;;;;4.39;95.40;98855.10;1655699;85;21000;-78
2022/11/25 01:04:27;;;;;;;10.85;4.60;;;;;;;4.38;95.77;98853.84;1655634;85;21027;-78
2022/11/25 01:06:55;;;;;;;12.35;5.28;;;;;;;4.39;95.61;98855.55;1655770;85;21027;-77
2022/11/25 01:09:23;;;;;;;12.33;4.65;;;;;;;4.42;95.25;98857.23;1661631;85;21046;-77
2022/11/25 01:11:51;;;;;;;10.48;5.00;;;;;;;4.39;95.64;98863.27;1655350;85;21099;-78
2022/11/25 01:14:20;;;;;;;10.15;4.22;;;;;;;4.41;95.51;98867.97;1654577;85;21047;-78
2022/11/25 01:16:49;;;;;;;11.70;4.83;;;;;;;4.45;95.50;98860.66;1655447;85;21076;-77
2022/11/25 01:19:18;;;;;;;10.05;4.87;;;;;;;4.45;95.31;98867.09;1658935;85;21051;-78
2022/11/25 01:21:46;;;;;;;13.30;4.95;;;;;;;4.46;95.37;98869.27;1655368;85;21217;-79
2022/11/25 01:24:15;;;;;;;11.63;4.58;;;;;;;4.43;95.12;98867.53;1635709;87;21039;-78
2022/11/25 01:26:44;;;;;;;12.03;4.90;;;;;;;4.44;95.10;98865.41;1656254;87;21063;-78
2022/11/25 01:29:15;;;;;;;10.98;6.10;;;;;;;4.44;95.23;98860.69;1655001;86;21614;-77
2022/11/25 01:31:44;;;;;;;11.83;5.28;;;;;;;4.48;94.93;98863.23;1654579;87;22013;-78
2022/11/25 01:34:16;;;;;;;11.73;5.83;;;;;;;4.53;94.77;98871.78;1654678;87;21118;-79
2022/11/25 01:36:45;;;;;;;14.47;5.95;;;;;;;4.51;94.70;98870.93;1654291;86;22058;-78
2022/11/25 01:39:22;;;;;;;11.70;5.08;;;;;;;4.50;94.60;98869.67;1654622;85;21130;-78
2022/11/25 01:41:50;;;;;;;13.88;5.80;;;;;;;4.56;94.59;98875.64;1655830;87;21055;-77
2022/11/25 01:44:22;;;;;;;13.55;6.45;;;;;;;4.51;94.59;98876.52;1655851;86;21047;-78
2022/11/25 01:47:13;;;;;;;14.68;6.35;;;;;;;4.51;94.77;98884.24;1655839;87;21035;-78
2022/11/25 01:49:48;;;;;;;14.73;6.10;;;;;;;4.55;94.48;98882.08;1655879;87;21011;-78
2022/11/25 01:52:24;;;;;;;16.62;6.45;;;;;;;4.52;94.46;98877.81;1654514;86;21586;-78
2022/11/25 01:55:06;;;;;;;12.25;5.85;;;;;;;4.55;94.40;98882.92;1655458;87;20991;-78
2022/11/25 01:57:48;;;;;;;13.15;5.65;;;;;;;4.53;94.46;98882.08;1655844;87;21543;-78
2022/11/25 02:00:17;;;;;;;12.60;6.35;;;;;;;4.60;94.12;98884.22;1660519;86;21519;-78
2022/11/25 02:02:52;;;;;;;13.98;5.72;;;;;;;4.61;94.21;98890.21;1661026;86;21083;-78
2022/11/25 02:05:43;;;;;;;;;;;;;;;4.63;94.41;98888.48;1663606;86;21031;-78
2022/11/25 02:08:12;;;;;;;16.42;5.08;;;;;;;4.67;94.18;98897.91;1660756;86;20488;-78
2022/11/25 02:10:41;;;;;;;12.18;5.00;;;;;;;4.67;94.15;98892.31;1665047;85;20989;-78
2022/11/25 02:13:10;;;;;;;12.88;5.42;;;;;;;4.72;93.69;98900.05;1661068;86;21029;-77
2022/11/25 02:15:37;;;;;;;12.82;5.45;;;;;;;4.69;93.86;98893.61;1661130;85;21056;-78
2022/11/25 02:18:06;;;;;;;11.00;4.62;;;;;;;4.74;93.84;98898.31;1661133;85;21009;-77
2022/11/25 02:20:33;;;;;;;12.88;5.72;;;;;;;4.72;93.95;98906.05;1661029;86;21013;-77
2022/11/25 02:23:34;;;;;;;12.03;5.33;;;;;;;4.69;94.36;98898.75;1660879;86;21027;-76
2022/11/25 02:26:02;;;;;;;12.93;6.03;;;;;;;4.74;93.87;98903.47;1659964;86;21945;-78
2022/11/25 02:28:32;;;;;;;12.93;5.70;;;;;;;4.67;94.55;98903.06;1659776;85;21062;-78
2022/11/25 02:31:02;;;;;;;11.65;5.85;;;;;;;4.69;94.50;98909.05;1660729;86;21048;-79
2022/11/25 02:33:30;;;;;;;12.03;5.03;;;;;;;4.60;95.23;98912.98;1659718;85;21123;-79
2022/11/25 02:36:03;;;;;;;18.05;6.42;;;;;;;4.60;95.08;98907.83;1659802;85;21091;-78
2022/11/25 02:38:41;;;;;;;13.85;6.45;;;;;;;4.59;95.37;98909.52;1659798;86;21049;-78
2022/11/25 02:41:33;;;;;;;13.55;5.92;;;;;;;4.65;94.88;98916.38;1659796;86;21056;-79
2022/11/25 02:44:03;;;;;;;11.78;5.75;;;;;;;4.62;95.50;98920.27;1658962;86;22364;-77
2022/11/25 02:46:31;;;;;;;13.28;6.55;;;;;;;4.60;95.78;98923.28;1658296;86;21110;-78
2022/11/25 02:49:01;;;;;;;15.78;6.65;;;;;;;4.60;95.64;98927.14;1658423;86;21027;-78
2022/11/25 02:51:31;;;;;;;14.45;6.20;;;;;;;4.58;95.59;98933.58;1658499;85;21078;-78
2022/11/25 02:54:00;;;;;;;14.78;6.40;;;;;;;4.65;95.55;98931.38;1649994;85;21539;-78
2022/11/25 02:56:32;;;;;;;13.78;5.97;;;;;;;4.64;95.50;98931.41;1657938;85;20987;-77
2022/11/25 02:59:00;;;;;;;12.98;5.35;;;;;;;4.65;95.50;98927.96;1709025;82;21578;-78
2022/11/25 03:01:30;;;;;;;13.53;6.17;;;;;;;4.61;95.97;98930.12;1712602;82;20943;-77
2022/11/25 03:03:58;;;;;;;15.05;6.28;;;;;;;4.61;96.18;98932.70;1709288;82;21052;-77
2022/11/25 03:06:28;;;;;;;16.15;7.00;;;;;;;4.64;95.60;98933.98;1696962;82;21478;-77
2022/11/25 03:08:57;;;;;;;16.12;6.85;;;;;;;4.66;95.62;98930.98;1715751;82;20959;-78
2022/11/25 03:12:17;;;;;;;16.90;6.55;;;;;;;4.67;95.77;98933.96;1697104;82;21064;-77
2022/11/25 03:13:54;;;;;;;16.02;7.08;;;;;;;4.67;95.96;98939.95;1710573;82;21042;-78
2022/11/25 03:16:21;;;;;;;16.77;6.78;;;;;;;4.70;95.80;98946.41;1697381;82;21038;-78
2022/11/25 03:18:48;;;;;;;14.98;6.85;;;;;;;4.74;95.71;98946.81;1709019;82;21038;-78
2022/11/25 03:21:16;;;;;;;14.53;6.10;;;;;;;4.75;95.70;98957.96;1698738;82;20998;-79
2022/11/25 03:23:43;;;;;;;12.07;6.15;;;;;;;4.71;96.14;98962.70;1704595;82;21002;-78
2022/11/25 03:26:11;;;;;;;13.93;6.80;;;;;;;4.77;95.52;98960.09;1714168;82;21082;-78
2022/11/25 03:28:38;;;;;;;16.55;6.60;;;;;;;4.75;95.94;98968.27;1701048;82;20998;-78
2022/11/25 03:31:11;;;;;;;16.42;6.45;;;;;;;4.76;96.19;98973.42;1702307;82;21069;-78
2022/11/25 03:33:39;;;;;;;16.85;7.20;;;;;;;4.78;96.31;98967.83;1701561;82;21006;-78
2022/11/25 03:36:07;;;;;;;13.62;6.37;;;;;;;4.81;95.83;98968.67;1714539;82;21038;-79
2022/11/25 03:38:34;;;;;;;16.50;7.50;;;;;;;4.86;95.69;98969.53;1714530;82;21010;-78
2022/11/25 03:41:02;;;;;;;21.57;8.40;;;;;;;4.84;95.92;98972.10;1714654;82;21034;-78
2022/11/25 03:43:31;;;;;;;19.92;7.42;;;;;;;4.83;96.01;98981.97;1714509;82;21014;-77
2022/11/25 03:45:59;;;;;;;19.17;7.62;;;;;;;4.88;95.41;98989.26;1714729;82;21066;-78
2022/11/25 03:48:28;;;;;;;23.62;8.35;;;;;;;4.83;96.06;98992.27;1714870;82;20994;-78
2022/11/25 03:50:56;;;;;;;20.15;8.10;;;;;;;4.85;95.94;98991.83;1714495;82;21478;-79
2022/11/25 03:53:24;;;;;;;21.10;10.03;;;;;;;4.88;96.12;98996.98;1715030;82;21037;-78
2022/11/25 03:55:53;;;;;;;14.98;6.90;;;;;;;4.86;96.32;99002.58;1714794;82;21018;-78
2022/11/25 03:58:22;;;;;;;18.98;8.00;;;;;;;4.89;96.20;99001.70;1715128;82;21520;-78
2022/11/25 04:00:50;;;;;;;19.02;7.97;;;;;;;4.90;95.94;99004.28;1693061;83;21034;-78
2022/11/25 04:03:18;;;;;;;21.55;7.90;;;;;;;4.91;95.78;99002.55;1706306;82;21013;-78
2022/11/25 04:05:45;;;;;;;16.82;7.55;;;;;;;4.94;96.17;99007.27;1689625;82;21038;-78
2022/11/25 04:08:13;;;;;;;18.70;7.90;;;;;;;4.98;96.21;99008.12;1693891;82;21041;-79
2022/11/25 04:10:41;;;;;;;14.15;7.03;;;;;;;5.01;95.50;99005.95;1702549;82;21023;-78
2022/11/25 04:13:10;;;;;;;24.60;7.65;;;;;;;5.01;95.77;99001.64;1704278;82;21006;-79
2022/11/25 04:15:47;;;;;;;14.28;6.85;;;;;;;5.06;95.40;99011.95;1698767;82;21023;-79
2022/11/25 04:18:17;;;;;;;17.23;7.62;;;;;;;5.04;95.88;99015.81;1704251;82;21033;-78
2022/11/25 04:20:45;;;;;;;18.57;7.25;;;;;;;5.04;96.13;99015.81;1698028;82;21034;-78
2022/11/25 04:23:13;;;;;;;13.90;6.70;;;;;;;5.08;96.21;99011.52;1702881;82;21026;-78
2022/11/25 04:25:49;;;;;;;17.27;7.78;;;;;;;5.13;95.75;99019.66;1695813;82;21042;-78
2022/11/25 04:28:19;;;;;;;17.52;7.47;;;;;;;5.11;96.07;99026.54;1693870;82;21577;-79
2022/11/25 04:30:47;;;;;;;16.00;7.25;;;;;;;5.15;95.62;99021.80;1693928;83;21597;-78
2022/11/25 04:33:14;;;;;;;15.08;6.78;;;;;;;5.13;95.51;99031.25;1693463;83;21065;-79
2022/11/25 04:35:43;;;;;;;19.17;7.60;;;;;;;5.18;95.38;99033.80;1694537;83;21050;-79
2022/11/25 04:38:11;;;;;;;16.75;7.92;;;;;;;5.18;95.62;99031.23;1709658;84;21007;-78
2022/11/25 04:40:39;;;;;;;18.70;7.97;;;;;;;5.24;95.93;99033.77;1709242;82;21079;-79
2022/11/25 04:43:15;;;;;;;20.12;8.60;;;;;;;5.32;96.14;99038.89;1708203;83;21614;-78
2022/11/25 04:45:52;;;;;;;22.98;8.88;;;;;;;5.38;95.68;99042.73;1707159;83;21086;-77
2022/11/25 04:48:20;;;;;;;24.90;8.43;;;;;;;5.40;95.70;99042.73;1709374;82;21054;-78
2022/11/25 04:50:48;;;;;;;19.60;8.38;;;;;;;5.45;95.75;99049.58;1709304;82;21518;-78
2022/11/25 04:53:15;;;;;;;19.85;8.00;;;;;;;5.52;95.91;99049.95;1709349;83;21039;-78
2022/11/25 04:55:43;;;;;;;16.57;8.35;;;;;;;5.58;95.67;99056.36;1709296;83;20979;-77
2022/11/25 04:59:38;;;;;;;18.30;8.00;;;;;;;5.62;95.48;99050.77;1709386;83;21971;-79
2022/11/25 05:00:43;;;;;;;17.95;7.70;;;;;;;5.61;95.09;99055.52;1709778;82;21091;-78
2022/11/25 05:03:11;;;;;;;25.77;8.85;;;;;;;5.67;95.36;99060.63;1713737;82;21090;-78
2022/11/25 05:05:38;;;;;;;21.33;9.75;;;;;;;5.70;95.07;99064.47;1693335;84;21066;-78
2022/11/25 05:08:06;;;;;;;16.10;8.05;;;;;;;5.70;94.70;99065.75;1713726;84;21050;-79
2022/11/25 05:10:33;;;;;;;21.80;8.13;;;;;;;5.68;94.52;99072.65;1713704;83;21007;-78
2022/11/25 05:13:01;;;;;;;20.75;8.40;;;;;;;5.68;94.56;99082.12;1713768;82;21046;-78
2022/11/25 05:15:28;;;;;;;17.32;7.72;;;;;;;5.70;94.62;99078.66;1713696;82;21027;-78
2022/11/25 05:17:56;;;;;;;16.73;7.03;;;;;;;5.73;94.48;99080.35;1713690;82;21007;-78
2022/11/25 05:20:26;;;;;;;19.50;8.73;;;;;;;5.75;94.49;99079.94;1690872;84;21779;-78
2022/11/25 05:22:54;;;;;;;17.20;8.60;;;;;;;5.83;94.69;99084.62;1713467;82;21042;-77
2022/11/25 05:25:23;;;;;;;22.73;8.68;;;;;;;5.83;94.32;99096.23;1713703;84;21093;-77
2022/11/25 05:27:53;;;;;;;24.25;9.23;;;;;;;5.84;94.34;99098.36;1710104;83;21031;-79
2022/11/25 05:30:20;;;;;;;21.85;8.80;;;;;;;5.88;94.39;99097.48;1713489;82;21042;-78
2022/11/25 05:32:48;;;;;;;14.30;7.67;;;;;;;5.89;94.02;99102.64;1713363;83;21078;-78
2022/11/25 05:35:16;;;;;;;17.98;7.62;;;;;;;5.91;93.85;99103.48;1713562;83;21050;-78
2022/11/25 05:37:45;;;;;;;19.27;7.97;;;;;;;5.91;93.86;99107.80;1713293;84;21051;-78
2022/11/25 05:40:13;;;;;;;19.75;8.20;;;;;;;5.93;93.91;99108.64;1713292;83;21069;-78
2022/11/25 05:42:45;;;;;;;19.87;7.55;;;;;;;5.96;93.73;99111.22;1712367;83;22217;-78
2022/11/25 05:45:12;;;;;;;15.43;6.87;;;;;;;6.00;93.78;99114.64;1713350;82;21585;-78
2022/11/25 05:47:40;;;;;;;18.02;7.12;;;;;;;6.02;93.75;99118.92;1713266;84;21526;-78
2022/11/25 05:50:08;;;;;;;20.27;8.18;;;;;;;6.03;93.87;99129.69;1713379;83;21589;-78
2022/11/25 05:52:36;;;;;;;17.35;8.10;;;;;;;6.07;93.82;99136.54;1713242;84;21051;-78
2022/11/25 05:55:07;;;;;;;19.50;8.18;;;;;;;6.06;93.50;99144.28;1713285;84;21047;-79
2022/11/25 05:57:34;;;;;;;18.27;8.35;;;;;;;6.06;93.49;99145.58;1714591;84;21511;-78
2022/11/25 06:00:08;;;;;;;16.82;7.87;;;;;;;6.09;93.71;99145.57;1714156;83;20983;-79
2022/11/25 06:02:50;;;;;;;16.40;7.50;;;;;;;6.04;93.44;99141.70;1720202;82;21008;-78
2022/11/25 06:05:19;;;;;;;17.07;8.13;;;;;;;6.06;93.27;99151.59;1716050;83;20994;-77
2022/11/25 06:07:46;;;;;;;16.27;8.45;;;;;;;6.07;93.53;99159.77;1716456;82;20979;-78
2022/11/25 06:10:16;;;;;;;18.73;8.00;;;;;;;6.12;93.61;99158.44;1716065;82;21003;-79
2022/11/25 06:12:44;;;;;;;17.92;8.10;;;;;;;6.14;93.50;99160.14;1711345;82;21034;-78
2022/11/25 06:15:11;;;;;;;19.02;8.10;;;;;;;6.13;93.34;99162.31;1706763;82;21017;-78
2022/11/25 06:17:40;;;;;;;17.62;7.92;;;;;;;6.13;93.16;99164.89;1709132;82;21029;-78
2022/11/25 06:20:10;;;;;;;21.90;9.30;;;;;;;6.13;93.28;99167.47;1706279;82;21015;-78
2022/11/25 06:22:37;;;;;;;20.62;8.88;;;;;;;6.11;93.00;99169.20;1697963;82;20986;-78
2022/11/25 06:25:06;;;;;;;17.30;8.08;;;;;;;6.05;93.03;99170.95;1712692;82;21034;-78
2022/11/25 06:27:35;;;;;;;20.32;9.63;;;;;;;6.03;93.11;99181.30;1699405;82;21070;-78
2022/11/25 06:30:04;;;;;;;19.60;9.43;;;;;;;6.03;93.14;99175.26;1710070;82;21570;-78
2022/11/25 06:32:32;;;;;;;24.47;10.98;;;;;;;6.05;93.55;99183.44;1701969;82;21463;-79
2022/11/25 06:35:02;;;;;;;33.00;14.83;;;;;;;6.08;93.66;99183.41;1707320;82;20970;-78
2022/11/25 06:37:37;;;;;;;38.02;15.65;;;;;;;6.13;93.50;99182.95;1701562;82;21033;-78
2022/11/25 06:40:06;;;;;;;40.80;15.93;;;;;;;6.08;93.42;99189.86;1704242;82;22114;-78
2022/11/25 06:42:34;;;;;;;39.78;17.42;;;;;;;6.08;93.33;99192.87;1715538;82;20987;-78
2022/11/25 06:45:01;;;;;;;41.08;16.82;;;;;;;6.09;93.58;99199.77;1709324;82;20971;-78
2022/11/25 06:47:29;;;;;;;40.83;16.52;;;;;;;6.10;93.54;99199.74;1696073;82;21029;-78
2022/11/25 06:49:56;;;;;;;37.83;16.15;;;;;;;6.13;93.87;99199.73;1699369;82;20979;-78
2022/11/25 06:52:24;;;;;;;29.12;13.75;;;;;;;6.14;93.64;99204.45;1714503;82;21049;-78
2022/11/25 06:54:52;;;;;;;30.27;12.90;;;;;;;6.18;94.08;99204.87;1701364;82;21010;-78
2022/11/25 06:57:20;;;;;;;27.10;12.80;;;;;;;6.22;93.81;99216.89;1712135;82;21027;-78
2022/11/25 06:59:47;;;;;;;23.77;9.95;;;;;;;6.24;93.78;99218.18;1700162;82;21053;-78
2022/11/25 07:02:15;;;;;;;23.20;10.88;;;;;;;6.27;93.47;99220.31;1689458;83;21026;-78
2022/11/25 07:04:43;;;;;;;27.40;12.55;;;;;;;6.29;93.53;99212.57;1686179;83;20994;-78
2022/11/25 07:07:11;;;;;;;27.32;11.35;;;;;;;6.32;93.43;99213.38;1688272;83;21066;-78
2022/11/25 07:09:38;;;;;;;24.35;11.12;;;;;;;6.33;93.60;99213.82;1686852;83;21012;-78
2022/11/25 07:12:06;;;;;;;25.17;11.60;;;;;;;6.38;93.54;99222.82;1687801;83;21060;-78
2022/11/25 07:14:34;;;;;;;32.73;10.90;;;;;;;6.43;93.54;99227.98;1686463;83;21045;-79
2022/11/25 07:17:01;;;;;;;25.68;11.45;;;;;;;6.47;93.53;99229.67;1688411;83;21066;-78
2022/11/25 07:19:32;;;;;;;22.37;9.80;;;;;;;6.50;93.42;99230.48;1686373;83;21000;-78
2022/11/25 07:21:58;;;;;;;24.60;11.03;;;;;;;6.53;93.35;99234.36;1687621;83;21030;-78
2022/11/25 07:24:26;;;;;;;24.12;10.58;;;;;;;6.58;93.32;99235.61;1686050;83;21053;-78
2022/11/25 07:26:53;;;;;;;22.17;9.38;;;;;;;6.63;93.24;99239.47;1685652;83;20995;-78
2022/11/25 07:29:21;;;;;;;20.57;9.18;;;;;;;6.64;92.71;99244.61;1686168;83;21033;-79
2022/11/25 07:31:48;;;;;;;18.65;8.68;;;;;;;6.67;92.78;99244.59;1684443;83;21018;-78
2022/11/25 07:34:19;;;;;;;25.25;9.73;;;;;;;6.67;92.55;99247.63;1689452;83;21026;-78
2022/11/25 07:36:49;;;;;;;18.98;9.30;;;;;;;6.65;92.34;99247.63;1684964;83;20994;-75
2022/11/25 07:39:20;;;;;;;22.58;9.78;;;;;;;6.66;92.56;99252.35;1691344;83;21424;-78
2022/11/25 07:41:52;;;;;;;25.20;10.82;;;;;;;6.69;92.62;99251.05;1689069;83;21033;-78
2022/11/25 07:44:20;;;;;;;20.85;9.60;;;;;;;6.67;92.41;99256.22;1690351;83;20999;-78
2022/11/25 07:46:52;;;;;;;20.20;10.30;;;;;;;6.70;92.56;99262.64;1684579;83;21025;-78
2022/11/25 07:49:25;;;;;;;21.12;10.30;;;;;;;6.71;92.41;99259.20;1691176;83;20991;-78
2022/11/25 07:52:03;;;;;;;25.32;11.38;;;;;;;6.74;92.50;99270.83;1692815;83;21039;-78
2022/11/25 07:54:31;;;;;;;21.33;10.30;;;;;;;6.74;92.12;99268.25;1691956;83;21843;-78
2022/11/25 07:56:59;;;;;;;24.23;11.18;;;;;;;6.76;92.25;99279.84;1692418;83;21025;-78
2022/11/25 07:59:27;;;;;;;22.58;10.60;;;;;;;6.74;92.11;99282.87;1692134;83;20956;-78
2022/11/25 08:01:55;;;;;;;28.95;10.28;;;;;;;6.70;91.93;99276.85;1688757;83;21557;-78
2022/11/25 08:04:23;;;;;;;20.52;9.70;;;;;;;6.69;91.91;99273.02;1693178;83;20991;-78
2022/11/25 08:06:52;;;;;;;24.30;11.30;;;;;;;6.70;91.95;99279.88;1688960;83;20962;-78
2022/11/25 08:09:22;;;;;;;23.60;10.63;;;;;;;6.72;92.08;99285.89;1687900;83;20983;-78
2022/11/25 08:11:50;;;;;;;23.55;9.98;;;;;;;6.74;92.16;99293.20;1688756;83;21434;-78
2022/11/25 08:14:18;;;;;;;20.57;9.40;;;;;;;6.76;92.14;99292.34;1687036;83;21550;-78
2022/11/25 08:16:46;;;;;;;22.98;10.78;;;;;;;6.76;91.79;99298.81;1690735;83;21469;-78
2022/11/25 08:19:16;;;;;;;27.40;12.45;;;;;;;6.77;91.85;99293.20;1688306;83;21523;-78
2022/11/25 08:21:46;;;;;;;27.90;14.35;;;;;;;6.75;91.74;99293.20;1693561;83;20972;-77
2022/11/25 08:24:17;;;;;;;21.00;11.57;;;;;;;6.73;91.53;99294.94;1693647;83;20958;-79
2022/11/25 08:26:45;;;;;;;15.98;9.60;;;;;;;6.72;91.17;99302.69;1690981;83;21034;-78
2022/11/25 08:29:16;;;;;;;15.23;8.40;;;;;;;6.71;90.94;99298.41;1697370;82;20994;-79
2022/11/25 08:31:44;;;;;;;18.73;9.98;;;;;;;6.70;90.60;99301.84;1692763;83;21811;-79
2022/11/25 08:34:22;;;;;;;17.05;9.53;;;;;;;6.71;90.35;99308.30;1691597;83;21031;-79
2022/11/25 08:36:50;;;;;;;13.15;7.15;;;;;;;6.70;90.18;99306.56;1681399;84;21006;-79
2022/11/25 08:39:20;;;;;;;16.30;5.87;;;;;;;6.71;90.10;99309.59;1684617;83;21003;-80
2022/11/25 08:41:47;;;;;;;14.63;6.70;;;;;;;6.75;90.20;99311.73;1693235;83;21040;-78
2022/11/25 08:44:15;;;;;;;9.70;5.55;;;;;;;6.76;89.88;99310.44;1693195;83;21533;-81
2022/11/25 08:46:43;;;;;;;11.45;6.17;;;;;;;6.75;89.84;99312.58;1696513;82;21623;-78
2022/11/25 08:49:12;;;;;;;10.90;6.08;;;;;;;6.73;89.83;99317.34;1694993;83;21555;-75
2022/11/25 08:51:39;;;;;;;13.90;6.25;;;;;;;6.72;89.99;99308.70;1680119;83;20967;-78
2022/11/25 08:54:07;;;;;;;16.57;7.40;;;;;;;6.71;89.83;99313.91;1685112;83;21739;-78
2022/11/25 08:56:35;;;;;;;25.25;10.50;;;;;;;6.68;89.99;99322.95;1685836;83;20994;-78
2022/11/25 08:59:03;;;;;;;17.92;7.92;;;;;;;6.65;90.18;99317.38;1691459;83;22198;-78
2022/11/25 09:01:31;;;;;;;16.17;7.53;;;;;;;6.63;89.83;99326.02;1693340;82;21063;-79
2022/11/25 09:03:59;;;;;;;15.30;6.83;;;;;;;6.55;89.33;99324.32;1718040;82;21034;-78
2022/11/25 09:06:28;;;;;;;11.90;5.85;;;;;;;6.50;89.06;99317.02;1705509;82;20994;-78
2022/11/25 09:08:59;;;;;;;18.65;6.05;;;;;;;6.49;89.44;99323.06;1707918;82;21577;-78
2022/11/25 09:11:27;;;;;;;15.38;7.33;;;;;;;6.47;88.88;99331.25;1711880;82;21027;-78
2022/11/25 09:13:54;;;;;;;15.45;6.60;;;;;;;6.46;88.55;99338.56;1712037;82;21533;-78
2022/11/25 09:16:22;;;;;;;14.10;7.17;;;;;;;6.45;88.70;99336.86;1712027;82;21006;-78
2022/11/25 09:18:50;;;;;;;15.45;7.20;;;;;;;6.45;88.67;99340.73;1709737;82;21963;-78
2022/11/25 09:21:17;;;;;;;17.52;8.25;;;;;;;6.44;88.58;99344.16;1693586;82;21548;-78
2022/11/25 09:23:47;;;;;;;13.10;7.15;;;;;;;6.41;88.48;99342.05;1705784;82;21578;-78
2022/11/25 09:26:22;;;;;;;18.65;8.63;;;;;;;6.39;88.60;99344.64;1706175;82;21105;-79
2022/11/25 09:28:50;;;;;;;26.95;12.23;;;;;;;6.34;88.53;99348.95;1703185;82;21065;-78
2022/11/25 09:31:18;;;;;;;17.05;7.97;;;;;;;6.34;88.63;99350.23;1700086;82;21057;-78
2022/11/25 09:33:46;;;;;;;19.55;9.00;;;;;;;6.33;88.80;99348.54;1698916;82;21033;-77
2022/11/25 09:36:17;;;;;;;17.05;8.08;;;;;;;6.29;88.23;99353.29;1696679;82;21874;-78
2022/11/25 09:38:45;;;;;;;24.25;9.40;;;;;;;6.26;88.22;99354.13;1700293;82;20978;-77
2022/11/25 09:47:48;;;;;;;16.75;7.00;;;;;;;6.03;88.38;99356.80;1699026;82;20947;-78
2022/11/25 09:50:59;;;;;;;12.70;6.30;;;;;;;6.05;88.69;99352.91;1696169;82;21042;-77
2022/11/25 09:53:59;;;;;;;16.32;6.92;;;;;;;6.01;88.79;99355.06;1633109;86;21556;-78
2022/11/25 09:56:38;;;;;;;11.93;5.85;;;;;;;5.98;88.43;99354.66;1661068;85;21019;-78
2022/11/25 09:59:28;;;;;;;10.93;5.35;;;;;;;5.94;88.35;99357.63;1660064;85;20991;-77
2022/11/25 10:02:02;;;;;;;12.98;6.25;;;;;;;5.96;88.33;99362.83;1629333;86;21009;-76
2022/11/25 10:04:46;;;;;;;13.43;8.15;;;;;;;5.91;88.25;99363.26;1628640;86;21026;-79
2022/11/25 10:07:28;;;;;;;18.67;7.22;;;;;;;5.89;87.86;99369.70;1631618;86;21062;-78
2022/11/25 10:10:00;;;;;;;17.32;7.22;;;;;;;5.84;87.93;99365.41;1628894;86;21022;-78
2022/11/25 10:12:33;;;;;;;13.90;6.10;;;;;;;5.84;88.25;99368.84;1626726;86;21006;-79
2022/11/25 10:15:06;;;;;;;12.33;5.20;;;;;;;5.78;88.01;99370.99;1655324;85;20995;-77
2022/11/25 10:17:59;;;;;;;8.85;4.12;;;;;;;5.79;87.87;99378.33;1658542;85;21035;-77
2022/11/25 10:20:32;;;;;;;7.80;4.22;;;;;;;5.81;87.42;99385.63;1658530;85;21050;-78
2022/11/25 10:23:04;;;;;;;8.35;4.33;;;;;;;5.83;87.44;99383.02;1619043;87;21105;-78
2022/11/25 10:25:37;;;;;;;9.30;4.70;;;;;;;5.83;87.04;99386.89;1629286;86;21045;-79
2022/11/25 10:28:21;;;;;;;39.53;16.70;;;;;;;5.87;87.37;99380.87;1628205;87;21099;-78
2022/11/25 10:31:06;;;;;;;28.62;13.25;;;;;;;5.84;86.54;99392.06;1628907;87;21115;-78
2022/11/25 10:33:39;;;;;;;17.02;8.75;;;;;;;5.82;85.99;99391.64;1655623;85;21031;-78
2022/11/25 10:36:30;;;;;;;15.75;7.83;;;;;;;5.82;86.47;99392.94;1655749;85;21032;-78
2022/11/25 10:39:26;;;;;;;13.90;6.55;;;;;;;5.80;86.53;99394.22;1656566;85;21592;-78
2022/11/25 10:42:06;;;;;;;12.58;6.35;;;;;;;5.86;86.81;99392.06;1660836;85;21507;-78
2022/11/25 10:44:37;;;;;;;11.55;5.67;;;;;;;5.90;86.59;99386.03;1654473;85;20976;-79
2022/11/25 10:47:48;;;;;;;10.82;5.65;;;;;;;5.94;86.30;99387.31;1656704;85;21063;-78
2022/11/25 10:50:41;;;;;;;8.65;4.70;;;;;;;6.01;86.30;99392.08;1651902;85;21019;-78
2022/11/25 10:53:16;;;;;;;12.45;4.83;;;;;;;6.03;85.19;99383.91;1657490;85;21051;-78
2022/11/25 10:56:04;;;;;;;9.73;4.37;;;;;;;6.00;85.53;99387.77;1637265;86;21347;-78
2022/11/25 10:58:36;;;;;;;7.72;4.12;;;;;;;6.03;84.83;99381.33;1658863;85;21023;-77
2022/11/25 11:01:24;;;;;;;6.85;3.55;;;;;;;6.02;82.69;99387.77;1657310;85;21067;-78
2022/11/25 11:03:56;;;;;;;10.10;4.22;;;;;;;6.02;83.86;99384.75;1664891;85;20972;-78
2022/11/25 11:06:39;;;;;;;10.40;4.40;;;;;;;6.03;84.01;99386.89;1659725;84;21007;-79
2022/11/25 11:09:32;;;;;;;9.50;4.62;;;;;;;6.06;84.98;99386.47;1661653;85;21065;-78
2022/11/25 11:12:13;;;;;;;9.65;4.58;;;;;;;6.02;83.45;99383.46;1637091;86;21047;-78
2022/11/25 11:14:41;;;;;;;12.73;5.92;;;;;;;6.02;83.00;99384.75;1669616;84;21525;-78
2022/11/25 11:17:34;;;;;;;11.83;5.42;;;;;;;6.02;84.45;99386.05;1667075;84;21021;-78
2022/11/25 11:20:07;;;;;;;12.10;5.50;;;;;;;5.98;83.85;99390.34;1641369;86;21096;-77
2022/11/25 11:22:39;;;;;;;10.23;5.45;;;;;;;5.93;83.25;99388.19;1659218;84;22216;-78
2022/11/25 11:25:20;;;;;;;13.55;6.25;;;;;;;5.97;84.19;99390.38;1640494;86;21029;-78
2022/11/25 11:27:48;;;;;;;15.95;7.78;;;;;;;5.90;83.70;99400.23;1662620;84;21035;-78
2022/11/25 11:30:20;;;;;;;12.28;6.65;;;;;;;5.81;84.04;99404.09;1642115;86;21065;-77
2022/11/25 11:33:08;;;;;;;15.88;6.75;;;;;;;5.76;84.35;99406.70;1667627;84;21511;-78
2022/11/25 11:36:08;;;;;;;13.15;5.58;;;;;;;5.69;84.45;99396.82;1639734;86;21014;-78
2022/11/25 11:39:14;;;;;;;14.38;6.58;;;;;;;5.64;84.96;99400.25;1652628;84;20994;-78
2022/11/25 11:42:11;;;;;;;15.25;5.40;;;;;;;5.63;85.38;99402.39;1638913;86;21062;-78
2022/11/25 11:44:59;;;;;;;10.90;5.90;;;;;;;5.63;85.72;99406.26;1638663;86;21035;-78
2022/11/25 11:47:41;;;;;;;9.78;4.85;;;;;;;5.60;86.01;99404.55;1635021;86;21344;-78
2022/11/25 11:50:31;;;;;;;8.85;4.50;;;;;;;5.50;85.74;99405.41;1636065;86;21015;-78
2022/11/25 11:53:23;;;;;;;16.42;5.95;;;;;;;5.49;86.08;99407.14;1661231;85;21097;-77
2022/11/25 11:56:14;;;;;;;12.18;6.42;;;;;;;5.42;86.61;99408.42;1664729;84;21558;-78
2022/11/25 11:59:14;;;;;;;10.23;6.05;;;;;;;5.42;86.28;99396.81;1657643;84;21552;-78
2022/11/25 12:01:59;;;;;;;10.78;5.90;;;;;;;5.46;86.59;99401.11;1647573;84;21091;-77
2022/11/25 12:04:39;;;;;;;11.20;5.70;;;;;;;5.48;86.90;99398.11;1632550;86;21113;-78
2022/11/25 12:07:27;;;;;;;15.10;5.35;;;;;;;5.54;87.03;99404.11;1642173;85;21050;-78